Time;durP1;ratioP1;P1;durP2;ratioP2;P2;SDS_P1;SDS_P2;PMS_P1;PMS_P2;Temp;Humidity;BMP_temperature;BMP_pressure;BME280_temperature;BME280_humidity;BME280_pressure;Samples;Min_cycle;Max_cycle;Signal;HPM_P1;HPM_P2
2023/08/16 00:00:57;;;;;;;3.65;2.90;;;21.00;99.90;;;;;;5052690;28;20727;-59
2023/08/16 00:03:24;;;;;;;6.03;3.00;;;21.00;99.90;;;;;;5052858;28;20213;-59
2023/08/16 00:05:50;;;;;;;3.47;2.58;;;21.00;99.90;;;;;;5052730;28;20301;-58
2023/08/16 00:08:17;;;;;;;3.28;2.72;;;20.90;99.90;;;;;;5052939;28;20225;-58
2023/08/16 00:10:44;;;;;;;7.47;3.03;;;21.00;99.90;;;;;;5052594;28;20206;-59
2023/08/16 00:13:12;;;;;;;5.43;3.00;;;21.00;99.90;;;;;;5052379;28;20557;-59
2023/08/16 00:15:38;;;;;;;3.85;3.30;;;21.00;99.90;;;;;;5052395;28;20701;-59
2023/08/16 00:18:06;;;;;;;5.88;3.03;;;21.00;99.90;;;;;;5052504;28;20283;-59
2023/08/16 00:20:32;;;;;;;4.68;2.88;;;21.00;99.90;;;;;;5052399;28;20241;-58
2023/08/16 00:22:59;;;;;;;6.45;2.80;;;20.90;99.90;;;;;;5052447;28;20568;-59
2023/08/16 00:25:26;;;;;;;6.65;2.70;;;20.90;99.90;;;;;;5052480;28;20201;-59
2023/08/16 00:27:52;;;;;;;3.80;2.80;;;20.90;99.90;;;;;;5052167;28;20584;-59
2023/08/16 00:30:20;;;;;;;4.35;2.60;;;20.90;99.90;;;;;;5052247;28;20380;-60
2023/08/16 00:32:47;;;;;;;3.30;2.85;;;20.80;99.90;;;;;;5051931;28;20408;-59
2023/08/16 00:35:14;;;;;;;3.38;3.08;;;20.80;99.90;;;;;;5052172;28;20212;-60
2023/08/16 00:37:40;;;;;;;3.03;2.53;;;20.90;99.90;;;;;;5052100;28;20205;-59
2023/08/16 00:40:08;;;;;;;4.93;2.78;;;20.90;99.90;;;;;;5052224;28;20209;-59
2023/08/16 00:42:35;;;;;;;5.32;2.92;;;20.90;99.90;;;;;;5051904;28;20752;-58
2023/08/16 00:45:02;;;;;;;3.90;2.80;;;20.90;99.90;;;;;;5051911;28;20209;-59
2023/08/16 00:47:30;;;;;;;5.43;3.10;;;20.90;99.90;;;;;;5051465;28;20739;-59
2023/08/16 00:49:57;;;;;;;7.57;3.05;;;20.80;99.90;;;;;;5052141;28;20213;-58
2023/08/16 00:52:23;;;;;;;3.28;2.80;;;20.80;99.90;;;;;;5051776;28;20742;-58
2023/08/16 00:54:50;;;;;;;5.82;2.85;;;20.50;99.90;;;;;;5052000;28;20205;-59
2023/08/16 00:57:17;;;;;;;5.97;2.70;;;20.60;99.90;;;;;;5051562;28;20205;-59
2023/08/16 00:59:45;;;;;;;3.60;2.75;;;20.60;99.90;;;;;;5051589;28;20691;-59
2023/08/16 01:02:14;;;;;;;3.95;2.60;;;20.50;99.90;;;;;;5051413;28;20233;-59
2023/08/16 01:04:42;;;;;;;3.70;2.90;;;20.50;99.90;;;;;;5051548;28;20664;-58
2023/08/16 01:07:09;;;;;;;3.75;2.92;;;20.50;99.90;;;;;;5051412;28;20240;-59
2023/08/16 01:09:36;;;;;;;3.50;2.83;;;20.60;99.90;;;;;;5050943;28;20205;-57
2023/08/16 01:12:09;;;;;;;6.25;2.85;;;20.50;99.90;;;;;;5051523;28;20225;-59
2023/08/16 01:14:45;;;;;;;3.17;2.88;;;20.50;99.90;;;;;;5051487;28;20256;-58
2023/08/16 01:17:14;;;;;;;4.13;3.10;;;20.40;99.90;;;;;;5051238;28;20209;-59
2023/08/16 01:19:43;;;;;;;4.57;2.97;;;20.30;99.90;;;;;;5051414;28;20210;-59
2023/08/16 01:22:17;;;;;;;4.03;2.80;;;20.40;99.90;;;;;;5051333;28;20233;-58
2023/08/16 01:24:58;;;;;;;4.78;3.03;;;20.40;99.90;;;;;;5051407;28;20244;-58
2023/08/16 01:27:27;;;;;;;4.15;3.00;;;20.40;99.90;;;;;;5050948;28;20205;-59
2023/08/16 01:29:55;;;;;;;3.53;2.80;;;20.40;99.90;;;;;;5051699;28;20216;-58
2023/08/16 01:32:22;;;;;;;6.03;2.95;;;20.40;99.90;;;;;;5051406;28;20279;-59
2023/08/16 01:34:49;;;;;;;3.45;3.03;;;20.30;99.90;;;;;;5051325;28;20256;-59
2023/08/16 01:37:16;;;;;;;6.70;3.17;;;20.40;99.90;;;;;;5050809;28;20210;-59
2023/08/16 01:39:42;;;;;;;4.70;2.83;;;20.30;99.90;;;;;;5051249;28;20201;-58
2023/08/16 01:42:13;;;;;;;8.02;3.17;;;20.30;99.90;;;;;;5051575;28;20583;-60
2023/08/16 01:44:42;;;;;;;3.38;3.05;;;20.30;99.90;;;;;;5051143;28;20308;-60
2023/08/16 01:47:10;;;;;;;5.45;3.15;;;20.30;99.90;;;;;;5050981;28;20205;-60
2023/08/16 01:49:37;;;;;;;4.55;3.10;;;20.20;99.90;;;;;;5051083;28;20252;-60
2023/08/16 01:52:05;;;;;;;8.10;3.50;;;20.20;99.90;;;;;;5051017;28;20228;-59
2023/08/16 01:54:31;;;;;;;3.50;3.20;;;20.10;99.90;;;;;;5050884;28;20213;-59
2023/08/16 01:56:58;;;;;;;3.67;3.38;;;20.20;99.90;;;;;;5050751;28;20206;-59
2023/08/16 01:59:25;;;;;;;3.20;2.90;;;20.20;99.90;;;;;;5051202;28;20212;-60
2023/08/16 02:01:53;;;;;;;4.80;3.00;;;20.20;99.90;;;;;;5050752;28;20229;-60
2023/08/16 02:04:19;;;;;;;3.55;3.17;;;20.20;99.90;;;;;;5050676;28;20219;-59
2023/08/16 02:06:46;;;;;;;3.92;2.90;;;20.30;99.90;;;;;;5050082;28;20307;-59
2023/08/16 02:09:13;;;;;;;5.30;3.40;;;20.30;99.90;;;;;;5050735;28;20213;-58
2023/08/16 02:11:39;;;;;;;5.72;3.63;;;20.20;99.90;;;;;;5050507;28;20225;-59
2023/08/16 02:14:06;;;;;;;4.38;2.85;;;20.30;99.90;;;;;;5050455;28;20212;-58
2023/08/16 02:16:33;;;;;;;5.25;3.22;;;20.30;99.90;;;;;;5050451;28;20205;-59
2023/08/16 02:19:01;;;;;;;6.53;3.30;;;20.20;99.90;;;;;;5050922;28;20241;-59
2023/08/16 02:21:28;;;;;;;3.30;3.00;;;20.20;99.90;;;;;;5052185;28;20232;-59
2023/08/16 02:23:54;;;;;;;5.15;2.88;;;20.10;99.90;;;;;;5054693;28;20617;-60
2023/08/16 02:26:22;;;;;;;7.53;3.35;;;20.10;99.90;;;;;;5054472;28;20201;-59
2023/08/16 02:28:50;;;;;;;4.80;2.60;;;20.10;99.90;;;;;;5054527;28;20241;-58
2023/08/16 02:31:17;;;;;;;6.97;3.40;;;20.00;99.90;;;;;;5054402;28;20614;-58
2023/08/16 02:33:44;;;;;;;4.47;3.03;;;19.90;99.90;;;;;;5054343;28;20213;-58
2023/08/16 02:36:12;;;;;;;7.05;2.67;;;19.80;99.90;;;;;;5054483;28;20213;-60
2023/08/16 02:38:38;;;;;;;6.68;5.85;;;19.80;99.90;;;;;;5054599;28;20212;-61
2023/08/16 02:41:05;;;;;;;6.07;3.22;;;19.80;99.90;;;;;;5054401;28;20233;-59
2023/08/16 02:43:32;;;;;;;5.15;4.43;;;19.80;99.90;;;;;;5054681;28;20202;-59
2023/08/16 02:45:58;;;;;;;5.57;3.10;;;19.80;99.90;;;;;;5054280;28;20202;-59
2023/08/16 02:48:25;;;;;;;5.38;3.03;;;19.90;99.90;;;;;;5054108;28;20206;-60
2023/08/16 02:50:52;;;;;;;6.22;3.35;;;19.80;99.90;;;;;;5054194;28;20213;-60
2023/08/16 02:53:20;;;;;;;4.50;3.33;;;19.80;99.90;;;;;;5054384;28;20224;-60
2023/08/16 02:55:47;;;;;;;6.32;2.88;;;19.80;99.90;;;;;;5053676;28;20341;-59
2023/08/16 02:58:13;;;;;;;4.15;3.17;;;19.80;99.90;;;;;;5053991;28;20216;-59
2023/08/16 03:00:40;;;;;;;5.07;3.53;;;19.70;99.90;;;;;;5053987;28;20210;-59
2023/08/16 03:03:07;;;;;;;3.65;3.25;;;19.70;99.90;;;;;;5053527;28;20232;-59
2023/08/16 03:05:34;;;;;;;5.43;3.75;;;20.10;99.90;;;;;;5053822;28;20213;-60
2023/08/16 03:08:00;;;;;;;4.60;3.05;;;19.80;99.90;;;;;;5053671;28;20213;-60
2023/08/16 03:10:28;;;;;;;7.38;4.63;;;19.80;99.90;;;;;;5053823;28;20613;-60
2023/08/16 03:12:56;;;;;;;5.10;2.97;;;19.90;99.90;;;;;;5053731;28;20602;-60
2023/08/16 03:15:23;;;;;;;5.72;3.45;;;19.80;99.90;;;;;;5053628;28;20205;-60
2023/08/16 03:17:49;;;;;;;5.22;3.30;;;19.80;99.90;;;;;;5053737;28;20246;-59
2023/08/16 03:20:16;;;;;;;5.32;3.30;;;19.80;99.90;;;;;;5053292;28;20216;-60
2023/08/16 03:22:43;;;;;;;4.20;3.38;;;19.80;99.90;;;;;;5053709;28;20608;-60
2023/08/16 03:25:10;;;;;;;3.78;3.35;;;19.80;99.90;;;;;;5053988;28;20279;-61
2023/08/16 03:27:38;;;;;;;4.15;3.38;;;19.80;99.90;;;;;;5053260;28;20244;-59
2023/08/16 03:30:06;;;;;;;6.65;3.33;;;19.80;99.90;;;;;;5053290;28;20214;-61
2023/08/16 03:32:32;;;;;;;5.30;3.40;;;19.80;99.90;;;;;;5052808;28;20256;-59
2023/08/16 03:34:59;;;;;;;5.82;3.22;;;19.70;99.90;;;;;;5053451;28;20202;-59
2023/08/16 03:37:26;;;;;;;5.53;2.97;;;19.70;99.90;;;;;;5053161;28;20209;-59
2023/08/16 03:39:52;;;;;;;7.63;3.70;;;19.70;99.90;;;;;;5053324;28;20232;-59
2023/08/16 03:42:21;;;;;;;9.27;3.83;;;19.70;99.90;;;;;;5052900;28;20240;-61
2023/08/16 03:44:49;;;;;;;5.57;3.70;;;19.70;99.90;;;;;;5052958;28;20202;-59
2023/08/16 03:47:15;;;;;;;6.40;3.60;;;19.70;99.90;;;;;;5053278;28;20213;-59
2023/08/16 03:49:44;;;;;;;3.72;3.40;;;19.70;99.90;;;;;;5052886;28;20700;-60
2023/08/16 03:52:11;;;;;;;9.73;3.53;;;19.70;99.90;;;;;;5052927;28;20426;-60
2023/08/16 03:54:37;;;;;;;6.00;3.67;;;19.70;99.90;;;;;;5053122;28;20206;-60
2023/08/16 03:57:04;;;;;;;4.80;3.40;;;19.70;99.90;;;;;;5052569;28;20201;-60
2023/08/16 03:59:31;;;;;;;5.82;3.55;;;19.70;99.90;;;;;;5053003;28;20206;-60
2023/08/16 04:01:59;;;;;;;5.53;3.70;;;19.70;99.90;;;;;;5052985;28;20257;-60
2023/08/16 04:04:26;;;;;;;3.60;3.30;;;19.80;99.90;;;;;;5052897;28;20206;-60
2023/08/16 04:06:53;;;;;;;4.38;3.20;;;19.80;99.90;;;;;;5052428;28;20205;-60
2023/08/16 04:09:20;;;;;;;6.05;4.80;;;19.80;99.90;;;;;;5052651;28;20205;-59
2023/08/16 04:11:46;;;;;;;7.75;3.90;;;19.90;99.90;;;;;;5052363;28;20229;-60
2023/08/16 04:14:13;;;;;;;4.93;4.22;;;19.90;99.90;;;;;;5053076;28;20202;-60
2023/08/16 04:16:40;;;;;;;9.65;4.50;;;20.00;99.90;;;;;;5052233;28;20583;-59
2023/08/16 04:19:08;;;;;;;12.23;4.05;;;20.00;99.90;;;;;;5052480;28;20670;-58
2023/08/16 04:21:34;;;;;;;5.80;4.20;;;20.10;99.90;;;;;;5052520;28;20689;-58
2023/08/16 04:24:01;;;;;;;6.55;3.85;;;20.20;99.90;;;;;;5052227;28;20519;-60
2023/08/16 04:26:28;;;;;;;6.35;4.03;;;20.20;99.90;;;;;;5052040;28;20209;-60
2023/08/16 04:28:54;;;;;;;9.20;4.70;;;20.20;99.90;;;;;;5052347;28;20220;-59
2023/08/16 04:31:21;;;;;;;4.90;4.38;;;20.20;99.90;;;;;;5052297;28;20240;-59
2023/08/16 04:33:49;;;;;;;8.13;4.05;;;20.30;99.90;;;;;;5052302;28;20206;-60
2023/08/16 04:36:17;;;;;;;7.93;4.07;;;20.40;99.90;;;;;;5052180;28;20205;-59
2023/08/16 04:38:44;;;;;;;5.18;4.63;;;20.40;99.90;;;;;;5051671;28;20209;-59
2023/08/16 04:41:10;;;;;;;7.25;6.22;;;20.40;99.90;;;;;;5051986;28;20246;-59
2023/08/16 04:43:37;;;;;;;10.00;5.03;;;20.40;99.90;;;;;;5051981;28;20222;-58
2023/08/16 04:46:04;;;;;;;10.57;4.70;;;20.50;99.90;;;;;;5050683;28;20708;-61
2023/08/16 04:48:30;;;;;;;4.93;4.22;;;20.50;99.90;;;;;;5052061;28;20647;-59
2023/08/16 04:50:57;;;;;;;5.82;4.60;;;20.50;99.90;;;;;;5051828;28;20229;-59
2023/08/16 04:53:25;;;;;;;10.00;5.50;;;20.40;99.90;;;;;;5051679;28;20208;-59
2023/08/16 04:55:52;;;;;;;6.20;4.75;;;20.40;99.90;;;;;;5051618;28;20288;-60
2023/08/16 04:58:18;;;;;;;8.80;4.68;;;20.40;99.90;;;;;;5051542;28;20572;-59
2023/08/16 05:00:45;;;;;;;5.65;4.70;;;20.40;99.90;;;;;;5051623;28;20520;-59
2023/08/16 05:03:12;;;;;;;5.15;4.35;;;20.30;99.90;;;;;;5051751;28;20252;-59
2023/08/16 05:05:39;;;;;;;7.60;3.47;;;20.20;99.90;;;;;;5051623;28;20263;-60
2023/08/16 05:08:06;;;;;;;4.68;4.10;;;20.20;99.90;;;;;;5051553;28;20205;-58
2023/08/16 05:10:34;;;;;;;5.47;4.00;;;20.20;99.90;;;;;;5051757;28;20232;-59
2023/08/16 05:13:00;;;;;;;5.15;4.18;;;20.30;99.90;;;;;;5051296;28;20205;-59
2023/08/16 05:15:27;;;;;;;8.23;5.28;;;20.30;99.90;;;;;;5051455;28;20205;-59
2023/08/16 05:17:53;;;;;;;5.85;5.00;;;20.30;99.90;;;;;;5051217;28;20213;-60
2023/08/16 05:20:20;;;;;;;7.32;5.57;;;20.40;99.90;;;;;;5051481;28;20202;-59
2023/08/16 05:22:47;;;;;;;7.88;5.07;;;20.40;99.90;;;;;;5051428;28;20237;-59
2023/08/16 05:25:13;;;;;;;7.80;6.13;;;20.50;99.90;;;;;;5051491;28;20206;-59
2023/08/16 05:27:41;;;;;;;9.35;6.15;;;20.60;99.90;;;;;;5051727;28;20304;-60
2023/08/16 05:30:09;;;;;;;8.05;6.28;;;20.50;99.90;;;;;;5051569;28;20205;-60
2023/08/16 05:32:35;;;;;;;8.30;5.93;;;20.40;99.90;;;;;;5051428;28;20604;-58
2023/08/16 05:35:02;;;;;;;11.45;6.60;;;20.40;99.90;;;;;;5051223;28;20704;-59
2023/08/16 05:37:29;;;;;;;7.60;6.70;;;20.50;99.90;;;;;;5051454;28;20233;-59
2023/08/16 05:39:56;;;;;;;7.55;6.65;;;20.60;99.90;;;;;;5051520;28;20669;-59
2023/08/16 05:42:22;;;;;;;6.95;5.95;;;20.70;99.90;;;;;;5051395;28;20613;-59
2023/08/16 05:44:51;;;;;;;9.00;6.18;;;20.90;99.90;;;;;;5051468;28;20678;-59
2023/08/16 05:47:17;;;;;;;8.82;5.80;;;21.50;99.90;;;;;;5051087;28;20222;-60
2023/08/16 05:49:44;;;;;;;8.32;5.63;;;22.30;99.90;;;;;;5051424;28;20209;-59
2023/08/16 05:52:11;;;;;;;8.43;4.82;;;23.60;99.90;;;;;;5051109;28;20287;-60
2023/08/16 05:54:37;;;;;;;6.18;4.72;;;24.70;99.90;;;;;;5051290;28;20665;-60
2023/08/16 05:57:04;;;;;;;6.85;4.30;;;25.80;99.90;;;;;;5053668;28;20215;-60
2023/08/16 05:59:31;;;;;;;5.15;4.32;;;26.40;99.90;;;;;;5055236;28;20213;-60
2023/08/16 06:01:59;;;;;;;8.48;3.97;;;27.10;99.90;;;;;;5055131;28;20582;-61
2023/08/16 06:04:26;;;;;;;4.65;3.75;;;27.60;99.90;;;;;;5055073;28;20291;-60
2023/08/16 06:06:52;;;;;;;5.68;3.50;;;28.30;99.90;;;;;;5055490;28;20209;-60
2023/08/16 06:09:19;;;;;;;5.47;3.55;;;29.20;99.90;;;;;;5055357;28;20216;-60
2023/08/16 06:11:46;;;;;;;4.18;2.90;;;30.00;99.90;;;;;;5055342;28;20239;-60
2023/08/16 06:14:12;;;;;;;5.88;2.97;;;30.90;99.90;;;;;;5055315;28;20301;-61
2023/08/16 06:16:39;;;;;;;5.30;2.83;;;31.90;99.90;;;;;;5055139;28;20205;-62
2023/08/16 06:19:08;;;;;;;3.15;2.80;;;32.90;99.90;;;;;;5055599;28;20212;-60
2023/08/16 06:21:35;;;;;;;4.95;2.85;;;33.70;99.90;;;;;;5055118;28;20226;-60
2023/08/16 06:24:02;;;;;;;4.60;2.67;;;34.40;99.90;;;;;;5055063;28;20229;-62
2023/08/16 06:26:29;;;;;;;4.72;2.70;;;34.60;99.90;;;;;;5054649;28;20705;-60
2023/08/16 06:28:55;;;;;;;3.45;2.60;;;35.10;99.90;;;;;;5055037;28;20553;-61
2023/08/16 06:31:22;;;;;;;5.38;2.63;;;35.70;99.90;;;;;;5054964;28;20240;-61
2023/08/16 06:33:49;;;;;;;5.50;2.95;;;36.40;99.90;;;;;;5055116;28;20228;-65
2023/08/16 06:36:17;;;;;;;3.80;2.55;;;36.90;99.30;;;;;;5054630;28;20696;-61
2023/08/16 06:38:44;;;;;;;6.50;2.63;;;36.40;98.90;;;;;;5054839;28;20599;-62
2023/08/16 06:41:10;;;;;;;4.78;2.65;;;35.80;99.40;;;;;;5054633;28;20257;-60
2023/08/16 06:43:37;;;;;;;4.35;2.58;;;35.80;99.10;;;;;;5054547;28;20232;-60
2023/08/16 06:46:04;;;;;;;3.17;2.42;;;35.80;99.00;;;;;;5054152;28;20213;-60
2023/08/16 06:48:31;;;;;;;4.60;2.70;;;35.60;98.80;;;;;;5054514;28;20206;-60
2023/08/16 06:50:57;;;;;;;7.72;2.70;;;35.30;98.90;;;;;;5054666;28;20255;-60
2023/08/16 06:53:27;;;;;;;4.60;3.10;;;34.70;99.70;;;;;;5054581;28;20201;-62
2023/08/16 06:55:54;;;;;;;8.82;2.67;;;33.70;99.90;;;;;;5054000;28;20308;-62
2023/08/16 06:58:20;;;;;;;8.40;3.03;;;32.50;99.90;;;;;;5054199;28;20205;-60
2023/08/16 07:00:49;;;;;;;5.80;3.10;;;31.10;99.90;;;;;;5054133;28;20214;-60
2023/08/16 07:03:16;;;;;;;6.38;3.20;;;30.00;99.90;;;;;;5054486;28;20279;-60
2023/08/16 07:05:43;;;;;;;7.15;2.88;;;29.30;99.90;;;;;;5054580;28;20241;-60
2023/08/16 07:08:09;;;;;;;6.22;2.80;;;28.90;99.90;;;;;;5053026;28;20216;-60
2023/08/16 07:10:37;;;;;;;8.02;3.38;;;28.70;99.90;;;;;;5054034;28;20209;-62
2023/08/16 07:13:04;;;;;;;5.88;3.22;;;28.40;99.90;;;;;;5053841;28;20201;-59
2023/08/16 07:15:31;;;;;;;6.22;3.30;;;28.10;99.90;;;;;;5054274;28;20209;-60
2023/08/16 07:17:57;;;;;;;5.28;3.45;;;27.90;99.90;;;;;;5053971;28;20206;-61
2023/08/16 07:20:24;;;;;;;3.50;2.80;;;27.70;99.90;;;;;;5054249;28;20210;-63
2023/08/16 07:22:51;;;;;;;6.32;3.20;;;27.70;99.90;;;;;;5053638;28;20240;-60
2023/08/16 07:25:17;;;;;;;4.13;3.05;;;27.90;99.90;;;;;;5053694;28;20230;-60
2023/08/16 07:27:46;;;;;;;4.20;3.22;;;28.20;99.90;;;;;;5053323;28;20275;-60
2023/08/16 07:30:13;;;;;;;3.80;3.15;;;28.70;99.90;;;;;;5053401;28;20677;-60
2023/08/16 07:32:39;;;;;;;4.47;2.90;;;29.30;99.90;;;;;;5053492;28;20257;-60
2023/08/16 07:35:07;;;;;;;4.70;3.50;;;29.80;99.90;;;;;;5053668;28;20209;-60
2023/08/16 07:37:34;;;;;;;4.75;3.45;;;30.00;99.90;;;;;;5053131;28;20212;-61
2023/08/16 07:40:01;;;;;;;5.03;2.83;;;30.20;99.90;;;;;;5053398;28;20205;-61
2023/08/16 07:42:28;;;;;;;4.25;2.90;;;30.60;99.90;;;;;;5063607;23;20222;-57
2023/08/16 07:44:57;;;;;;;3.60;3.00;;;31.20;99.90;;;;;;5025426;28;20261;-56
2023/08/16 07:47:24;;;;;;;6.28;3.30;;;31.40;99.90;;;;;;5033273;28;20235;-57
2023/08/16 07:49:50;;;;;;;4.07;3.20;;;31.60;99.90;;;;;;5033400;28;20209;-58
2023/08/16 07:52:17;;;;;;;7.28;3.20;;;31.90;99.90;;;;;;5033084;28;20229;-57
2023/08/16 07:54:44;;;;;;;9.05;3.17;;;33.20;99.90;;;;;;5033098;28;20202;-58
2023/08/16 07:57:10;;;;;;;4.85;3.00;;;34.80;99.90;;;;;;5033119;28;20206;-58
2023/08/16 07:59:37;;;;;;;3.50;3.00;;;36.30;99.90;;;;;;5033311;28;20209;-57
2023/08/16 08:02:06;;;;;;;5.90;3.00;;;37.40;99.40;;;;;;5033310;28;20226;-58
2023/08/16 08:04:32;;;;;;;3.78;2.40;;;38.40;96.20;;;;;;5033097;28;20260;-58
2023/08/16 08:06:59;;;;;;;4.10;2.70;;;39.10;93.10;;;;;;5032692;28;20276;-59
2023/08/16 08:09:26;;;;;;;6.63;2.55;;;39.80;91.40;;;;;;5033104;28;20210;-58
2023/08/16 08:11:53;;;;;;;6.95;3.03;;;40.30;88.30;;;;;;5033159;28;20253;-59
2023/08/16 08:14:20;;;;;;;5.40;2.85;;;40.90;86.20;;;;;;5032955;28;20260;-58
2023/08/16 08:16:46;;;;;;;2.75;2.30;;;41.30;81.40;;;;;;5032576;28;20212;-59
2023/08/16 08:19:14;;;;;;;4.60;2.90;;;41.60;80.00;;;;;;5032508;28;20210;-59
2023/08/16 08:21:42;;;;;;;3.42;2.38;;;41.90;77.80;;;;;;5032770;28;20237;-59
2023/08/16 08:24:08;;;;;;;3.38;2.30;;;42.20;75.40;;;;;;5032787;28;20225;-58
2023/08/16 08:26:35;;;;;;;3.45;2.60;;;42.50;73.80;;;;;;5032085;28;20209;-59
2023/08/16 08:29:02;;;;;;;4.00;2.67;;;42.40;73.10;;;;;;5032663;28;20681;-58
2023/08/16 08:31:29;;;;;;;5.07;2.42;;;42.10;73.10;;;;;;5032234;28;20221;-59
2023/08/16 08:33:56;;;;;;;4.43;2.88;;;41.30;73.90;;;;;;5032456;28;20684;-59
2023/08/16 08:36:24;;;;;;;4.82;2.83;;;39.70;78.20;;;;;;5031872;28;20550;-58
2023/08/16 08:38:50;;;;;;;4.82;3.28;;;37.30;84.00;;;;;;5032547;28;20260;-58
2023/08/16 08:41:18;;;;;;;7.97;3.10;;;35.50;89.90;;;;;;5032229;28;20284;-58
2023/08/16 08:43:46;;;;;;;4.05;3.15;;;34.30;92.40;;;;;;5032719;28;20249;-59
2023/08/16 08:46:13;;;;;;;5.80;3.45;;;33.10;94.90;;;;;;5032038;28;20210;-59
2023/08/16 08:48:41;;;;;;;5.00;3.22;;;32.20;97.50;;;;;;5032204;28;20218;-58
2023/08/16 08:51:07;;;;;;;5.63;4.13;;;31.60;99.80;;;;;;5032377;28;20210;-58
2023/08/16 08:53:35;;;;;;;5.28;3.83;;;30.90;99.90;;;;;;5032309;28;20206;-59
2023/08/16 08:56:07;;;;;;;7.40;4.70;;;30.30;99.90;;;;;;5031969;28;20615;-59
2023/08/16 08:58:34;;;;;;;10.20;5.10;;;30.00;99.90;;;;;;5032044;28;20236;-59
2023/08/16 09:01:02;;;;;;;6.75;4.65;;;29.80;99.90;;;;;;5031824;28;20210;-58
2023/08/16 09:03:31;;;;;;;5.13;4.32;;;29.60;99.90;;;;;;5031830;28;20240;-58
2023/08/16 09:06:00;;;;;;;5.72;3.88;;;29.50;99.90;;;;;;5031968;28;20206;-59
2023/08/16 09:08:27;;;;;;;7.18;4.30;;;29.60;99.90;;;;;;5031881;28;20206;-59
2023/08/16 09:10:55;;;;;;;7.07;4.40;;;29.70;99.90;;;;;;5031647;28;20635;-59
2023/08/16 09:13:22;;;;;;;4.35;3.72;;;29.80;99.90;;;;;;5031702;28;20216;-58
2023/08/16 09:15:49;;;;;;;4.45;3.50;;;29.80;99.90;;;;;;5031456;28;20237;-58
2023/08/16 09:18:17;;;;;;;7.10;4.28;;;29.90;99.90;;;;;;5032383;28;20213;-58
2023/08/16 09:20:45;;;;;;;4.38;3.78;;;29.90;99.90;;;;;;5032043;28;20206;-58
2023/08/16 09:23:13;;;;;;;7.47;3.80;;;30.00;99.90;;;;;;5031729;28;20222;-57
2023/08/16 09:25:40;;;;;;;6.78;4.22;;;30.10;99.90;;;;;;5031542;28;20249;-57
2023/08/16 09:28:11;;;;;;;8.27;3.97;;;30.40;99.90;;;;;;5032218;28;20637;-58
2023/08/16 09:30:38;;;;;;;7.13;3.53;;;30.80;99.90;;;;;;5031582;28;20221;-58
2023/08/16 09:33:05;;;;;;;6.18;3.80;;;31.00;99.90;;;;;;5031739;28;20739;-58
2023/08/16 09:35:33;;;;;;;7.97;3.80;;;31.10;99.90;;;;;;5031665;28;20548;-58
2023/08/16 09:38:02;;;;;;;3.75;3.40;;;31.20;99.90;;;;;;5031417;28;20206;-58
2023/08/16 09:40:29;;;;;;;6.07;4.30;;;31.30;99.90;;;;;;5031709;28;20225;-58
2023/08/16 09:42:59;;;;;;;6.32;3.88;;;31.50;99.90;;;;;;5031413;28;20238;-58
2023/08/16 09:45:33;;;;;;;6.38;3.75;;;31.70;99.90;;;;;;5031681;28;20280;-59
2023/08/16 09:48:01;;;;;;;5.07;3.33;;;31.80;99.90;;;;;;5031495;28;20206;-62
2023/08/16 09:50:28;;;;;;;5.65;3.17;;;31.90;99.90;;;;;;5031187;28;20660;-62
2023/08/16 09:52:58;;;;;;;4.78;3.30;;;32.00;99.90;;;;;;5031107;28;20278;-62
2023/08/16 09:55:29;;;;;;;6.43;3.55;;;32.10;99.90;;;;;;5031136;28;20205;-61
2023/08/16 09:57:57;;;;;;;4.95;3.30;;;32.30;99.90;;;;;;5031117;28;20212;-62
2023/08/16 10:00:25;;;;;;;4.63;3.30;;;32.30;99.90;;;;;;5031308;28;20210;-61
2023/08/16 10:02:53;;;;;;;5.15;3.47;;;32.40;99.90;;;;;;5031159;28;20752;-62
2023/08/16 10:05:21;;;;;;;3.75;3.35;;;32.30;99.90;;;;;;5031004;28;20229;-58
2023/08/16 10:07:48;;;;;;;5.60;3.60;;;32.20;99.90;;;;;;5024895;28;20216;-64
2023/08/16 10:10:15;;;;;;;3.92;3.20;;;32.10;99.90;;;;;;5029670;28;20225;-64
2023/08/16 10:12:42;;;;;;;5.15;3.00;;;32.20;99.90;;;;;;5030102;28;20222;-64
2023/08/16 10:15:10;;;;;;;4.70;3.08;;;32.10;99.90;;;;;;5030061;28;20217;-65
2023/08/16 10:17:39;;;;;;;5.50;3.40;;;32.10;99.90;;;;;;5014314;28;20228;-65
2023/08/16 10:20:15;;;;;;;9.35;3.53;;;32.00;99.90;;;;;;5010340;28;20234;-65
2023/08/16 10:22:43;;;;;;;5.32;3.17;;;32.10;99.90;;;;;;5009933;28;20278;-65
2023/08/16 10:25:16;;;;;;;6.15;3.55;;;32.00;99.90;;;;;;5010502;28;20238;-65
2023/08/16 10:27:45;;;;;;;5.95;3.42;;;32.10;99.90;;;;;;5009554;28;20206;-66
2023/08/16 10:30:17;;;;;;;6.30;2.92;;;32.10;99.90;;;;;;5010223;28;20678;-65
2023/08/16 10:32:46;;;;;;;7.47;3.63;;;32.40;99.90;;;;;;5010313;28;20269;-65
2023/08/16 10:35:14;;;;;;;4.15;3.75;;;32.60;99.90;;;;;;5010178;28;20667;-67
2023/08/16 10:37:42;;;;;;;5.57;3.83;;;32.70;99.90;;;;;;5010094;28;20203;-62
2023/08/16 10:40:18;;;;;;;5.63;4.22;;;32.70;99.90;;;;;;5010149;28;20234;-62
2023/08/16 10:42:58;;;;;;;6.22;3.35;;;32.70;99.90;;;;;;5011616;28;20241;-62
2023/08/16 10:45:30;;;;;;;3.45;3.15;;;32.50;99.90;;;;;;5013517;28;20241;-61
2023/08/16 10:47:56;;;;;;;4.60;3.25;;;32.40;99.90;;;;;;5013862;28;20206;-64
2023/08/16 10:50:35;;;;;;;4.03;3.13;;;32.40;99.90;;;;;;5014364;28;20203;-62
2023/08/16 10:53:02;;;;;;;3.15;2.75;;;32.40;99.90;;;;;;5014137;28;20227;-60
2023/08/16 10:55:29;;;;;;;4.72;2.80;;;32.40;99.90;;;;;;5013534;28;20210;-61
2023/08/16 10:57:56;;;;;;;4.70;3.10;;;32.50;99.90;;;;;;5013245;28;20254;-61
2023/08/16 11:00:32;;;;;;;4.35;3.00;;;32.80;99.90;;;;;;5013636;28;20682;-61
2023/08/16 11:03:01;;;;;;;4.53;3.13;;;32.90;99.90;;;;;;5013911;28;20226;-62
2023/08/16 11:05:31;;;;;;;4.82;2.75;;;33.30;99.90;;;;;;5013443;28;20234;-62
2023/08/16 11:08:01;;;;;;;4.25;3.00;;;33.80;99.90;;;;;;5013133;28;20307;-61
2023/08/16 11:10:35;;;;;;;4.93;3.33;;;33.90;99.90;;;;;;5013327;28;20281;-62
2023/08/16 11:13:03;;;;;;;4.22;2.90;;;34.00;99.90;;;;;;5013269;28;20231;-63
2023/08/16 11:15:29;;;;;;;4.78;3.17;;;33.90;99.90;;;;;;5013230;28;20580;-62
2023/08/16 11:17:56;;;;;;;5.45;3.00;;;33.80;99.90;;;;;;5013457;28;20213;-60
2023/08/16 11:20:25;;;;;;;9.25;3.22;;;33.50;99.90;;;;;;5013266;28;20218;-62
2023/08/16 11:22:53;;;;;;;4.00;3.00;;;33.10;99.90;;;;;;5013228;28;20234;-62
2023/08/16 11:25:21;;;;;;;3.30;2.72;;;32.80;99.90;;;;;;5013204;28;20289;-62
2023/08/16 11:27:50;;;;;;;4.18;2.85;;;32.70;99.90;;;;;;5013088;28;20281;-62
2023/08/16 11:30:17;;;;;;;3.15;2.70;;;32.60;99.90;;;;;;5013105;28;20231;-62
2023/08/16 11:32:44;;;;;;;9.55;6.85;;;32.40;99.90;;;;;;5012969;28;20653;-62
2023/08/16 11:35:12;;;;;;;3.22;2.80;;;32.30;99.90;;;;;;5012800;28;20210;-62
2023/08/16 11:37:40;;;;;;;4.05;2.90;;;32.20;99.90;;;;;;5012259;28;20691;-61
2023/08/16 11:40:09;;;;;;;5.32;2.70;;;32.30;99.90;;;;;;5013232;28;20206;-61
2023/08/16 11:42:38;;;;;;;4.60;2.55;;;32.30;99.90;;;;;;5012868;28;20278;-63
2023/08/16 11:45:19;;;;;;;3.15;2.38;;;32.30;99.90;;;;;;5013203;28;20254;-61
2023/08/16 11:47:50;;;;;;;6.93;2.60;;;32.30;99.90;;;;;;5030642;28;20697;-62
2023/08/16 11:50:17;;;;;;;4.47;2.42;;;32.30;99.50;;;;;;5032031;28;20202;-64
2023/08/16 11:52:45;;;;;;;3.85;2.40;;;32.30;99.10;;;;;;5014876;28;20224;-61
2023/08/16 11:55:15;;;;;;;3.30;2.20;;;32.30;98.20;;;;;;5017335;28;20553;-61
2023/08/16 11:57:46;;;;;;;2.28;2.05;;;32.40;98.00;;;;;;5029152;28;20221;-62
2023/08/16 12:00:15;;;;;;;3.70;2.58;;;32.40;97.80;;;;;;5027808;28;20219;-62
2023/08/16 12:02:44;;;;;;;4.10;2.60;;;32.50;98.10;;;;;;5011954;28;20226;-62
2023/08/16 12:05:12;;;;;;;3.47;2.40;;;32.70;97.80;;;;;;5012525;28;20232;-63
2023/08/16 12:07:42;;;;;;;3.88;2.70;;;32.80;97.30;;;;;;5012014;28;20211;-62
2023/08/16 12:10:09;;;;;;;3.55;2.33;;;32.80;97.70;;;;;;5012192;28;20639;-62
2023/08/16 12:12:36;;;;;;;3.75;2.58;;;32.80;97.30;;;;;;5012059;28;20227;-62
2023/08/16 12:15:04;;;;;;;3.58;2.50;;;33.00;96.00;;;;;;5012176;28;20207;-63
2023/08/16 12:17:32;;;;;;;5.38;2.45;;;33.10;95.50;;;;;;5013067;28;20584;-62
2023/08/16 12:19:59;;;;;;;3.28;2.28;;;33.10;95.90;;;;;;5013297;28;20218;-62
2023/08/16 12:22:25;;;;;;;4.57;2.17;;;33.20;95.80;;;;;;5012895;28;20230;-62
2023/08/16 12:24:52;;;;;;;3.50;2.30;;;33.20;95.70;;;;;;5013029;28;20234;-62
2023/08/16 12:27:18;;;;;;;3.00;2.05;;;33.30;95.30;;;;;;5012645;28;20211;-61
2023/08/16 12:29:45;;;;;;;3.80;2.35;;;33.40;94.30;;;;;;5013015;28;20313;-61
2023/08/16 12:32:13;;;;;;;3.10;2.28;;;33.50;93.70;;;;;;5013346;28;20235;-61
2023/08/16 12:34:40;;;;;;;2.58;2.22;;;33.50;93.50;;;;;;5013047;28;20202;-61
2023/08/16 12:37:07;;;;;;;3.58;2.45;;;33.60;93.70;;;;;;5012909;28;20555;-61
2023/08/16 12:39:34;;;;;;;5.05;2.30;;;33.70;93.60;;;;;;5012938;28;20671;-62
2023/08/16 12:42:02;;;;;;;3.58;2.40;;;33.80;92.70;;;;;;5012368;28;20632;-62
2023/08/16 12:44:28;;;;;;;4.13;2.30;;;33.90;92.50;;;;;;5012278;28;20210;-62
2023/08/16 12:46:55;;;;;;;4.00;2.20;;;33.90;91.90;;;;;;5012437;28;20588;-62